Time;durP1;ratioP1;P1;durP2;ratioP2;P2;SDS_P1;SDS_P2;PMS_P1;PMS_P2;Temp;Humidity;BMP_temperature;BMP_pressure;BME280_temperature;BME280_humidity;BME280_pressure;Samples;Min_cycle;Max_cycle;Signal;HPM_P1;HPM_P2
2021/11/27 00:00:30;;;;;;;13.20;12.30;;;2.30;99.90;;;;;;6246579;23;20394;-77
2021/11/27 00:02:57;;;;;;;13.60;12.70;;;2.30;99.90;;;;;;6247081;22;20412;-77
2021/11/27 00:05:24;;;;;;;13.27;12.37;;;2.30;99.90;;;;;;6219775;23;20498;-77
2021/11/27 00:07:52;;;;;;;13.23;12.40;;;2.30;99.90;;;;;;6246575;23;20439;-77
2021/11/27 00:10:21;;;;;;;13.80;12.70;;;2.30;99.90;;;;;;6246758;23;20386;-77
2021/11/27 00:12:50;;;;;;;13.60;12.70;;;2.30;99.90;;;;;;6247156;22;20398;-77
2021/11/27 00:15:18;;;;;;;13.70;12.80;;;2.30;99.90;;;;;;6245852;23;20733;-76
2021/11/27 00:17:46;;;;;;;14.47;13.47;;;2.30;99.90;;;;;;6246632;23;20438;-77
2021/11/27 00:20:16;;;;;;;14.83;13.73;;;2.30;99.90;;;;;;6246800;23;20435;-77
2021/11/27 00:22:43;;;;;;;14.57;13.50;;;2.30;99.90;;;;;;6246671;22;20312;-77
2021/11/27 00:25:11;;;;;;;15.03;13.93;;;2.30;99.90;;;;;;6219683;23;20421;-77
2021/11/27 00:27:38;;;;;;;14.70;13.70;;;2.20;99.90;;;;;;6219471;23;20943;-77
2021/11/27 00:30:09;;;;;;;14.97;13.97;;;2.30;99.90;;;;;;6219400;23;20418;-77
2021/11/27 00:32:36;;;;;;;14.73;13.73;;;2.30;99.90;;;;;;6219621;23;20430;-77
2021/11/27 00:35:04;;;;;;;14.97;13.80;;;2.30;99.90;;;;;;6223723;23;20805;-76
2021/11/27 00:37:31;;;;;;;15.53;14.43;;;2.30;99.90;;;;;;6244633;23;20761;-77
2021/11/27 00:39:58;;;;;;;15.90;14.80;;;2.30;99.90;;;;;;6245331;23;20410;-76
2021/11/27 00:42:25;;;;;;;15.67;14.50;;;2.30;99.90;;;;;;6244537;22;20441;-77
2021/11/27 00:44:53;;;;;;;15.47;14.37;;;2.30;99.90;;;;;;6246767;23;20395;-77
2021/11/27 00:47:21;;;;;;;15.23;14.17;;;2.30;99.90;;;;;;6244538;23;20409;-77
2021/11/27 00:49:53;;;;;;;15.27;14.17;;;2.30;99.90;;;;;;6245328;23;20413;-77
2021/11/27 00:52:20;;;;;;;15.67;14.27;;;2.30;99.90;;;;;;6245223;22;20505;-76
2021/11/27 00:54:47;;;;;;;14.83;13.83;;;2.30;99.90;;;;;;6247321;23;20389;-77
2021/11/27 00:57:14;;;;;;;15.40;14.13;;;2.30;99.90;;;;;;6244638;23;20983;-77
2021/11/27 00:59:41;;;;;;;14.70;13.63;;;2.40;99.90;;;;;;6245058;23;20461;-77
2021/11/27 01:02:08;;;;;;;14.27;13.27;;;2.40;99.90;;;;;;6244776;22;20482;-77
2021/11/27 01:04:37;;;;;;;15.27;14.17;;;2.30;99.90;;;;;;6244844;23;20402;-77
2021/11/27 01:07:06;;;;;;;14.90;13.80;;;2.30;99.90;;;;;;6244574;23;20750;-77
2021/11/27 01:09:34;;;;;;;14.87;13.77;;;2.30;99.90;;;;;;6244721;23;20408;-76
2021/11/27 01:12:01;;;;;;;14.87;13.77;;;2.30;99.90;;;;;;6244799;22;20451;-77
2021/11/27 01:14:29;;;;;;;15.50;14.40;;;2.40;99.90;;;;;;6244862;23;20416;-76
2021/11/27 01:17:00;;;;;;;14.63;13.73;;;2.40;99.90;;;;;;6244621;23;20195;-77
2021/11/27 01:19:28;;;;;;;15.07;14.00;;;2.50;99.90;;;;;;6246867;23;20464;-77
2021/11/27 01:21:59;;;;;;;15.07;14.07;;;2.50;99.90;;;;;;6246618;22;20399;-77
2021/11/27 01:24:27;;;;;;;16.00;14.80;;;2.60;99.90;;;;;;6245065;23;20408;-77
2021/11/27 01:26:54;;;;;;;15.33;14.23;;;2.60;99.90;;;;;;6244465;23;20414;-77
2021/11/27 01:29:22;;;;;;;15.10;13.93;;;2.70;99.90;;;;;;6246605;22;20393;-77
2021/11/27 01:31:49;;;;;;;15.47;14.00;;;2.70;99.90;;;;;;6246906;22;20396;-77
2021/11/27 01:34:16;;;;;;;15.37;14.23;;;2.80;99.90;;;;;;6244788;23;20417;-77
2021/11/27 01:36:44;;;;;;;15.63;14.50;;;2.80;99.90;;;;;;6244250;23;20449;-77
2021/11/27 01:39:12;;;;;;;15.63;14.43;;;2.80;99.90;;;;;;6245070;23;20511;-76
2021/11/27 01:41:39;;;;;;;15.50;14.40;;;2.90;99.90;;;;;;6244969;22;20435;-77
2021/11/27 01:44:07;;;;;;;16.20;15.00;;;2.80;99.90;;;;;;6244432;23;20531;-77
2021/11/27 01:46:35;;;;;;;15.57;14.37;;;2.80;99.90;;;;;;6244750;23;20420;-76
2021/11/27 01:49:03;;;;;;;15.20;14.10;;;2.80;99.90;;;;;;6244881;23;20420;-77
2021/11/27 01:51:30;;;;;;;15.30;14.20;;;2.80;99.90;;;;;;6244775;23;20179;-77
2021/11/27 01:54:02;;;;;;;15.37;14.27;;;2.80;99.90;;;;;;6244803;22;20197;-77
2021/11/27 01:56:33;;;;;;;15.10;14.00;;;2.80;99.90;;;;;;6246698;23;20170;-76
2021/11/27 01:59:01;;;;;;;14.93;13.93;;;2.80;99.90;;;;;;6244874;23;20170;-77
2021/11/27 02:01:31;;;;;;;14.70;13.60;;;2.80;99.90;;;;;;6244873;23;20298;-77
2021/11/27 02:03:59;;;;;;;15.43;14.33;;;2.90;99.90;;;;;;6244971;22;20195;-77
2021/11/27 02:06:31;;;;;;;15.23;14.13;;;2.90;99.90;;;;;;6244547;23;20629;-77
2021/11/27 02:08:59;;;;;;;14.73;13.73;;;2.90;99.90;;;;;;6244773;23;20174;-77
2021/11/27 02:11:33;;;;;;;15.00;13.90;;;2.90;99.90;;;;;;6245020;23;20181;-77
2021/11/27 02:14:01;;;;;;;14.40;13.40;;;2.90;99.90;;;;;;6244768;22;20191;-77
2021/11/27 02:16:29;;;;;;;15.20;14.13;;;2.90;99.90;;;;;;6244643;23;20194;-77
2021/11/27 02:18:56;;;;;;;15.40;14.30;;;2.90;99.90;;;;;;6246756;23;20197;-77
2021/11/27 02:21:24;;;;;;;14.53;13.50;;;2.90;99.90;;;;;;6246334;23;20174;-76
2021/11/27 02:23:54;;;;;;;15.07;13.97;;;2.90;99.90;;;;;;6246536;22;20198;-76
2021/11/27 02:26:30;;;;;;;15.13;14.03;;;2.90;99.90;;;;;;6247118;23;20475;-77
2021/11/27 02:29:04;;;;;;;14.73;13.73;;;2.90;99.90;;;;;;6246974;23;20416;-77
2021/11/27 02:31:31;;;;;;;14.47;13.43;;;2.90;99.90;;;;;;6246558;23;20170;-77
2021/11/27 02:34:00;;;;;;;15.00;13.90;;;2.90;99.90;;;;;;6245951;22;20783;-77
2021/11/27 02:36:29;;;;;;;14.57;13.57;;;2.90;99.90;;;;;;6245771;23;20486;-77
2021/11/27 02:38:58;;;;;;;14.20;13.30;;;2.90;99.90;;;;;;6246476;23;20191;-76
2021/11/27 02:41:26;;;;;;;14.40;13.40;;;2.90;99.90;;;;;;6246425;23;20185;-77
2021/11/27 02:43:53;;;;;;;14.40;13.40;;;2.90;99.90;;;;;;6246182;22;20433;-78
2021/11/27 02:46:20;;;;;;;14.20;13.20;;;3.00;99.90;;;;;;6245490;23;20415;-76
2021/11/27 02:48:47;;;;;;;13.77;12.87;;;3.00;99.90;;;;;;6246152;23;20170;-77
2021/11/27 02:51:14;;;;;;;14.17;13.17;;;3.10;99.90;;;;;;6245935;23;20236;-77
2021/11/27 02:53:43;;;;;;;14.10;13.10;;;3.20;99.90;;;;;;6246102;22;20195;-77
2021/11/27 02:56:10;;;;;;;14.40;13.40;;;3.20;99.90;;;;;;6246269;23;20521;-76
2021/11/27 02:58:38;;;;;;;13.43;12.53;;;3.20;99.90;;;;;;6245970;23;20178;-77
2021/11/27 03:01:07;;;;;;;13.43;12.57;;;3.30;99.90;;;;;;6246563;23;20209;-77
2021/11/27 03:03:35;;;;;;;13.90;12.90;;;3.20;99.90;;;;;;6246420;22;20269;-77
2021/11/27 03:06:02;;;;;;;13.50;12.60;;;3.30;99.90;;;;;;6246196;23;20181;-77
2021/11/27 03:08:29;;;;;;;14.43;13.40;;;3.20;99.90;;;;;;6245781;23;20170;-77
2021/11/27 03:10:58;;;;;;;13.80;12.80;;;3.20;99.90;;;;;;6246411;23;20420;-77
2021/11/27 03:13:26;;;;;;;13.63;12.63;;;3.20;99.90;;;;;;6246113;22;20765;-77
2021/11/27 03:15:53;;;;;;;13.50;12.60;;;3.20;99.90;;;;;;6246624;23;20413;-77
2021/11/27 03:18:20;;;;;;;13.90;13.00;;;3.20;99.90;;;;;;6246103;23;20191;-77
2021/11/27 03:20:47;;;;;;;13.90;13.00;;;3.20;99.90;;;;;;6246150;23;20556;-76
2021/11/27 03:23:14;;;;;;;13.03;12.23;;;3.30;99.90;;;;;;6246020;22;20660;-77
2021/11/27 03:25:42;;;;;;;13.23;12.30;;;3.30;99.90;;;;;;6246008;23;20938;-77
2021/11/27 03:28:10;;;;;;;13.10;12.30;;;3.40;99.90;;;;;;6245973;23;20171;-77
2021/11/27 03:30:37;;;;;;;13.50;12.60;;;3.40;99.90;;;;;;6247187;23;20170;-77
2021/11/27 03:33:07;;;;;;;12.63;11.87;;;3.40;99.90;;;;;;6245096;22;20200;-77
2021/11/27 03:35:34;;;;;;;12.90;12.20;;;3.50;99.90;;;;;;6245087;23;20183;-76
2021/11/27 03:38:04;;;;;;;11.60;10.87;;;3.50;99.90;;;;;;6245493;23;20191;-77
2021/11/27 03:40:32;;;;;;;12.33;11.43;;;3.50;99.90;;;;;;6245795;23;20171;-77
2021/11/27 03:43:01;;;;;;;11.30;10.60;;;3.60;99.90;;;;;;6245592;22;20248;-77
2021/11/27 03:45:31;;;;;;;11.70;10.93;;;3.60;99.90;;;;;;6245617;23;20180;-77
2021/11/27 03:48:04;;;;;;;11.77;10.93;;;3.60;99.90;;;;;;6245583;23;20171;-77
2021/11/27 03:50:45;;;;;;;12.20;11.30;;;3.70;99.90;;;;;;6245713;23;20187;-77
2021/11/27 03:53:14;;;;;;;11.90;11.10;;;3.60;99.90;;;;;;6245802;22;20520;-77
2021/11/27 03:55:42;;;;;;;12.13;11.33;;;3.70;99.90;;;;;;6245352;23;20174;-77
2021/11/27 03:58:09;;;;;;;12.30;11.40;;;3.60;99.90;;;;;;6234650;23;20656;-77
2021/11/27 04:00:38;;;;;;;12.20;11.30;;;3.70;99.90;;;;;;6246047;23;20409;-76
2021/11/27 04:03:07;;;;;;;12.13;11.37;;;3.70;99.90;;;;;;6243177;22;20217;-77
2021/11/27 04:05:39;;;;;;;11.97;11.17;;;3.70;99.90;;;;;;6242338;23;20170;-77
2021/11/27 04:08:06;;;;;;;12.17;11.37;;;3.70;99.90;;;;;;6241403;23;20629;-78
2021/11/27 04:10:33;;;;;;;13.40;12.30;;;3.70;99.90;;;;;;6246021;23;20440;-76
2021/11/27 04:13:00;;;;;;;12.33;11.53;;;3.80;99.90;;;;;;6246840;22;20699;-77
2021/11/27 04:15:28;;;;;;;12.33;11.53;;;3.70;99.90;;;;;;6245387;23;20175;-77
2021/11/27 04:17:57;;;;;;;12.17;11.47;;;3.70;99.90;;;;;;6245249;23;20600;-77
2021/11/27 04:20:26;;;;;;;12.60;11.80;;;3.70;99.90;;;;;;6246137;23;20167;-77
2021/11/27 04:22:53;;;;;;;12.10;11.33;;;3.80;99.90;;;;;;6245698;22;20641;-77
2021/11/27 04:25:20;;;;;;;11.93;11.10;;;3.80;99.90;;;;;;6244968;23;20174;-77
2021/11/27 04:27:47;;;;;;;12.53;11.73;;;3.80;99.90;;;;;;6244909;23;20900;-78
2021/11/27 04:30:17;;;;;;;12.97;12.00;;;3.80;99.90;;;;;;6244811;23;20170;-78
2021/11/27 04:32:45;;;;;;;12.17;11.37;;;3.80;99.90;;;;;;6244993;22;20190;-77
2021/11/27 04:35:22;;;;;;;12.17;11.37;;;3.80;99.90;;;;;;6245008;23;20701;-77
2021/11/27 04:37:49;;;;;;;12.27;11.47;;;3.80;99.90;;;;;;6244685;23;20190;-77
2021/11/27 04:40:17;;;;;;;12.63;11.77;;;3.80;99.90;;;;;;6245218;23;20452;-76
2021/11/27 04:42:45;;;;;;;12.57;11.77;;;3.80;99.90;;;;;;6244322;22;20460;-77
2021/11/27 04:45:13;;;;;;;12.60;11.80;;;3.80;99.90;;;;;;6245159;23;20178;-77
2021/11/27 04:47:44;;;;;;;12.30;11.50;;;3.80;99.90;;;;;;6244702;23;20506;-77
2021/11/27 04:50:16;;;;;;;12.30;11.50;;;3.80;99.90;;;;;;6249746;23;20182;-77
2021/11/27 04:52:45;;;;;;;12.50;11.70;;;3.80;99.90;;;;;;6247745;22;20190;-77
2021/11/27 04:55:14;;;;;;;12.50;11.70;;;3.70;99.90;;;;;;6242562;23;20502;-77
2021/11/27 04:57:54;;;;;;;12.70;11.90;;;3.80;99.90;;;;;;6242215;23;20186;-76
2021/11/27 05:00:23;;;;;;;13.00;12.20;;;3.80;99.90;;;;;;6240878;23;20175;-76
2021/11/27 05:02:50;;;;;;;12.27;11.37;;;3.80;99.90;;;;;;6242127;22;20194;-76
2021/11/27 05:05:17;;;;;;;12.60;11.60;;;3.80;99.90;;;;;;6242254;23;20175;-76
2021/11/27 05:07:46;;;;;;;12.40;11.60;;;3.80;99.90;;;;;;6242094;23;20247;-76
2021/11/27 05:10:13;;;;;;;12.40;11.60;;;3.80;99.90;;;;;;6242232;23;20197;-76
2021/11/27 05:12:41;;;;;;;11.97;11.20;;;3.80;99.90;;;;;;6242438;22;20441;-76
2021/11/27 05:15:09;;;;;;;12.60;11.80;;;3.80;99.90;;;;;;6241958;23;20513;-76
2021/11/27 05:17:39;;;;;;;12.13;11.33;;;3.80;99.90;;;;;;6242112;23;20186;-77
2021/11/27 05:20:16;;;;;;;12.30;11.50;;;3.90;99.90;;;;;;6242953;23;20253;-76
2021/11/27 05:22:43;;;;;;;12.20;11.40;;;3.90;99.90;;;;;;6241959;22;20197;-77
2021/11/27 05:25:12;;;;;;;12.80;11.90;;;3.90;99.90;;;;;;6242535;22;20242;-77
2021/11/27 05:27:57;;;;;;;11.83;11.03;;;3.80;99.90;;;;;;6244331;23;20161;-76
2021/11/27 05:30:41;;;;;;;12.10;11.30;;;3.90;99.90;;;;;;6242340;23;20216;-76
2021/11/27 05:33:11;;;;;;;11.60;10.90;;;3.80;99.90;;;;;;6242304;22;20225;-76
2021/11/27 05:35:47;;;;;;;12.20;11.40;;;3.80;99.90;;;;;;6242964;23;20261;-78
2021/11/27 05:38:15;;;;;;;11.30;10.50;;;3.90;99.90;;;;;;6242188;23;20194;-75
2021/11/27 05:40:43;;;;;;;11.30;10.60;;;3.90;99.90;;;;;;6240033;23;20463;-75
2021/11/27 05:43:10;;;;;;;11.00;10.30;;;3.90;99.90;;;;;;6240400;22;20194;-76
2021/11/27 05:45:38;;;;;;;11.07;10.47;;;4.00;99.90;;;;;;6240621;23;20521;-76
2021/11/27 05:48:05;;;;;;;11.00;10.30;;;4.00;99.90;;;;;;6241985;23;20221;-76
2021/11/27 05:50:51;;;;;;;10.63;10.03;;;4.00;99.90;;;;;;6243646;23;20162;-76
2021/11/27 05:53:19;;;;;;;11.20;10.40;;;4.00;99.90;;;;;;6243664;22;20405;-77
2021/11/27 05:55:48;;;;;;;10.47;9.87;;;4.00;99.90;;;;;;6243051;23;20182;-76
2021/11/27 05:58:15;;;;;;;11.03;10.33;;;4.10;99.90;;;;;;6245227;23;20429;-76
2021/11/27 06:00:43;;;;;;;10.90;10.27;;;4.10;99.90;;;;;;6245766;23;20235;-76
2021/11/27 06:03:10;;;;;;;11.00;10.40;;;4.10;99.90;;;;;;6243698;22;20554;-76
2021/11/27 06:05:37;;;;;;;10.47;9.87;;;4.10;99.90;;;;;;6244005;23;20494;-76
2021/11/27 06:08:04;;;;;;;11.10;10.40;;;4.10;99.90;;;;;;6245297;23;20178;-76
2021/11/27 06:10:32;;;;;;;10.23;9.63;;;4.10;99.90;;;;;;6243990;23;20244;-76
2021/11/27 06:13:00;;;;;;;10.37;9.80;;;4.00;99.90;;;;;;6245504;22;20572;-76
2021/11/27 06:15:27;;;;;;;10.70;10.10;;;4.00;99.90;;;;;;6245062;23;20631;-76
2021/11/27 06:17:54;;;;;;;10.57;9.97;;;4.00;99.90;;;;;;6245199;23;20178;-76
2021/11/27 06:20:21;;;;;;;10.60;10.00;;;4.00;99.90;;;;;;6245513;23;20221;-76
2021/11/27 06:22:49;;;;;;;11.00;10.30;;;3.90;99.90;;;;;;6243850;22;20187;-76
2021/11/27 06:25:15;;;;;;;10.80;10.20;;;4.00;99.90;;;;;;6245718;23;20217;-76
2021/11/27 06:27:42;;;;;;;10.90;10.30;;;3.90;99.90;;;;;;6245133;23;20483;-76
2021/11/27 06:30:11;;;;;;;11.07;10.47;;;4.00;99.90;;;;;;6245250;23;20220;-76
2021/11/27 06:32:38;;;;;;;10.73;10.13;;;4.00;99.90;;;;;;6243655;22;20194;-77
2021/11/27 06:35:06;;;;;;;10.80;10.20;;;4.00;99.90;;;;;;6245163;23;20174;-76
2021/11/27 06:37:33;;;;;;;11.00;10.40;;;4.00;99.90;;;;;;6244897;23;20217;-76
2021/11/27 06:40:00;;;;;;;10.70;10.10;;;4.00;99.90;;;;;;6218484;23;20257;-76
2021/11/27 06:42:27;;;;;;;10.83;10.23;;;4.00;99.90;;;;;;6218572;23;20660;-76
2021/11/27 06:44:58;;;;;;;11.07;10.47;;;4.00;99.90;;;;;;6218308;23;20163;-76
2021/11/27 06:47:30;;;;;;;10.80;10.20;;;3.90;99.90;;;;;;6218033;23;20491;-77
2021/11/27 06:49:57;;;;;;;10.80;10.20;;;3.90;99.90;;;;;;6245183;23;20170;-76
2021/11/27 06:52:24;;;;;;;10.97;10.37;;;3.80;99.90;;;;;;6218298;23;20506;-76
2021/11/27 06:54:51;;;;;;;10.90;10.30;;;3.80;99.90;;;;;;6242692;23;20237;-76
2021/11/27 06:57:19;;;;;;;11.20;10.60;;;3.70;99.90;;;;;;6215621;23;20468;-76
2021/11/27 06:59:46;;;;;;;11.70;11.00;;;3.70;99.90;;;;;;6216887;23;20221;-76
2021/11/27 07:02:39;;;;;;;11.27;10.67;;;3.60;99.90;;;;;;6216124;23;20272;-77
2021/11/27 07:05:25;;;;;;;11.23;10.63;;;3.60;99.90;;;;;;6244538;23;20209;-77
2021/11/27 07:07:56;;;;;;;11.20;10.50;;;3.50;99.90;;;;;;6221732;23;20496;-78
2021/11/27 07:10:23;;;;;;;10.77;10.17;;;3.50;99.90;;;;;;6246129;23;20713;-77
2021/11/27 07:12:54;;;;;;;10.80;10.20;;;3.50;99.90;;;;;;6219177;23;20434;-77
2021/11/27 07:15:22;;;;;;;11.00;10.40;;;3.50;99.90;;;;;;6219405;23;20270;-77
2021/11/27 07:17:50;;;;;;;11.23;10.53;;;3.50;99.90;;;;;;6244773;23;20706;-77
2021/11/27 07:20:17;;;;;;;10.93;10.33;;;3.60;99.90;;;;;;6244130;23;20175;-77
2021/11/27 07:22:43;;;;;;;11.20;10.60;;;3.60;99.90;;;;;;6217766;23;20562;-78
2021/11/27 07:25:11;;;;;;;11.20;10.50;;;3.70;99.90;;;;;;6218037;23;20251;-76
2021/11/27 07:28:09;;;;;;;11.00;10.40;;;3.80;99.90;;;;;;6244096;23;20193;-76
2021/11/27 07:30:36;;;;;;;12.30;11.50;;;3.80;99.90;;;;;;6244767;23;20753;-77
2021/11/27 07:33:04;;;;;;;11.10;10.50;;;3.90;99.90;;;;;;6244725;22;20214;-76
2021/11/27 07:35:31;;;;;;;11.97;11.27;;;4.00;99.90;;;;;;6227785;23;20233;-76
2021/11/27 07:37:58;;;;;;;12.00;11.30;;;4.00;99.90;;;;;;6245112;23;20229;-77
2021/11/27 07:40:26;;;;;;;11.60;10.90;;;4.10;99.90;;;;;;6244611;23;20220;-75
2021/11/27 07:42:53;;;;;;;11.40;10.70;;;4.10;99.90;;;;;;6244560;22;20675;-76
2021/11/27 07:45:41;;;;;;;11.67;10.67;;;4.10;99.90;;;;;;6243112;23;20409;-76
2021/11/27 07:48:18;;;;;;;12.03;11.20;;;4.10;99.90;;;;;;6244799;22;20630;-76
2021/11/27 07:51:04;;;;;;;12.33;11.53;;;4.20;99.90;;;;;;6244377;23;20688;-76
2021/11/27 07:53:49;;;;;;;11.80;11.10;;;4.20;99.90;;;;;;6243141;22;20193;-76
2021/11/27 07:56:16;;;;;;;11.40;10.70;;;4.10;99.90;;;;;;6241983;23;20625;-77
2021/11/27 07:58:43;;;;;;;11.80;11.10;;;4.10;99.90;;;;;;6243700;23;20178;-77
2021/11/27 08:01:10;;;;;;;12.00;11.30;;;4.30;99.90;;;;;;6244034;23;20476;-76
2021/11/27 08:03:38;;;;;;;11.63;11.03;;;4.40;99.90;;;;;;6246307;22;20190;-77
2021/11/27 08:06:05;;;;;;;12.00;11.30;;;4.50;99.90;;;;;;6247795;23;20194;-79
2021/11/27 08:08:32;;;;;;;12.30;11.63;;;4.50;99.90;;;;;;6241838;23;20175;-77
2021/11/27 08:10:59;;;;;;;12.37;11.67;;;4.50;99.90;;;;;;6243100;23;20171;-76
2021/11/27 08:13:25;;;;;;;12.17;11.47;;;4.50;99.90;;;;;;6241388;22;20446;-78
2021/11/27 08:15:52;;;;;;;11.57;10.90;;;4.40;99.90;;;;;;6241335;23;20174;-76
2021/11/27 08:18:19;;;;;;;12.20;11.40;;;4.50;99.90;;;;;;6243330;23;20726;-77
2021/11/27 08:20:49;;;;;;;11.80;11.10;;;4.50;99.90;;;;;;6243379;23;20167;-77
2021/11/27 08:23:17;;;;;;;12.30;11.60;;;4.60;99.90;;;;;;6241705;22;20229;-77
2021/11/27 08:25:44;;;;;;;12.63;11.93;;;4.70;99.90;;;;;;6242738;23;20558;-76
2021/11/27 08:28:10;;;;;;;12.50;11.80;;;4.70;99.90;;;;;;6239377;23;20680;-76
2021/11/27 08:30:37;;;;;;;13.10;12.20;;;4.80;99.90;;;;;;6241799;23;20229;-76
2021/11/27 08:33:04;;;;;;;12.63;11.90;;;4.90;99.90;;;;;;6243124;22;20193;-76
2021/11/27 08:35:31;;;;;;;13.10;12.30;;;5.00;99.90;;;;;;6242156;23;20203;-76
2021/11/27 08:37:59;;;;;;;11.70;11.00;;;5.10;99.90;;;;;;6242185;23;20186;-77
2021/11/27 08:40:26;;;;;;;11.60;10.80;;;5.20;99.90;;;;;;6244328;23;20167;-77
2021/11/27 08:42:53;;;;;;;11.33;10.70;;;5.60;99.90;;;;;;6242335;22;20216;-76
2021/11/27 08:45:20;;;;;;;11.03;10.43;;;6.10;99.90;;;;;;6242595;23;20175;-77
2021/11/27 08:47:47;;;;;;;11.50;10.80;;;6.50;99.90;;;;;;6243742;23;20171;-76
2021/11/27 08:50:14;;;;;;;10.93;10.33;;;6.70;99.90;;;;;;6244070;23;20170;-76
2021/11/27 08:52:41;;;;;;;11.10;10.50;;;7.00;99.90;;;;;;6243075;22;20186;-77
2021/11/27 08:55:10;;;;;;;11.13;10.50;;;7.00;99.90;;;;;;6242232;23;20245;-76
2021/11/27 08:57:37;;;;;;;11.00;10.40;;;6.80;99.90;;;;;;6243939;22;20626;-77
2021/11/27 09:00:05;;;;;;;10.80;10.20;;;6.60;99.90;;;;;;6243622;22;20237;-77
2021/11/27 09:02:32;;;;;;;11.60;10.90;;;6.60;99.90;;;;;;6242303;22;20727;-77
2021/11/27 09:04:59;;;;;;;12.73;12.03;;;6.70;99.90;;;;;;6243292;23;20171;-77
2021/11/27 09:07:26;;;;;;;11.63;11.00;;;7.00;99.90;;;;;;6244120;23;20187;-77
2021/11/27 09:09:53;;;;;;;3.03;2.83;;;7.20;99.90;;;;;;6244177;23;20213;-77
2021/11/27 09:12:22;;;;;;;8.33;7.80;;;7.50;99.90;;;;;;6244288;22;20187;-76
2021/11/27 09:14:52;;;;;;;5.80;5.30;;;7.80;99.90;;;;;;6242273;23;20564;-76
2021/11/27 09:17:19;;;;;;;3.00;2.80;;;8.00;99.90;;;;;;6242043;23;20176;-76
2021/11/27 09:19:46;;;;;;;4.13;3.67;;;8.10;99.90;;;;;;6242225;23;20194;-76
2021/11/27 09:22:13;;;;;;;8.03;7.53;;;8.00;99.90;;;;;;6243767;22;20212;-77
2021/11/27 09:24:40;;;;;;;11.63;10.83;;;7.90;99.90;;;;;;6242589;23;20181;-76
2021/11/27 09:27:07;;;;;;;11.27;10.57;;;7.80;99.90;;;;;;6243755;23;20451;-76
2021/11/27 09:29:38;;;;;;;11.50;10.80;;;7.70;99.90;;;;;;6244288;23;20172;-77
2021/11/27 09:32:06;;;;;;;11.60;11.00;;;7.60;99.90;;;;;;6244622;22;20223;-76
2021/11/27 09:34:33;;;;;;;11.77;11.07;;;7.60;99.90;;;;;;6246131;23;20166;-77
2021/11/27 09:37:01;;;;;;;11.80;11.10;;;7.50;99.90;;;;;;6245900;23;20153;-77
2021/11/27 09:39:29;;;;;;;12.30;11.40;;;7.50;99.90;;;;;;6246476;23;20184;-76
2021/11/27 09:41:58;;;;;;;12.10;11.40;;;7.50;99.90;;;;;;6246050;22;20511;-77
2021/11/27 09:44:25;;;;;;;10.90;10.23;;;7.60;99.90;;;;;;6246491;23;20624;-77
2021/11/27 09:46:53;;;;;;;11.73;10.97;;;7.70;99.90;;;;;;6219181;23;20177;-78
2021/11/27 09:49:21;;;;;;;11.57;10.77;;;7.80;99.90;;;;;;6246856;23;20710;-77
2021/11/27 09:51:50;;;;;;;12.03;11.33;;;8.00;99.90;;;;;;6246288;22;20629;-77
2021/11/27 09:54:18;;;;;;;11.93;11.23;;;8.10;99.90;;;;;;6245783;23;20171;-76
2021/11/27 09:56:45;;;;;;;11.40;10.70;;;8.20;99.90;;;;;;6219194;23;20280;-77
2021/11/27 09:59:12;;;;;;;10.93;10.20;;;8.30;99.90;;;;;;6218880;23;20276;-76
2021/11/27 10:01:44;;;;;;;3.77;3.47;;;8.40;99.90;;;;;;6245907;22;20231;-77
2021/11/27 10:04:14;;;;;;;3.57;3.23;;;8.40;99.90;;;;;;6219589;23;20520;-77
2021/11/27 10:06:43;;;;;;;9.97;8.97;;;8.30;99.90;;;;;;6219085;23;20170;-78
2021/11/27 10:09:12;;;;;;;3.67;3.07;;;8.30;99.90;;;;;;6219782;23;20179;-77
2021/11/27 10:11:39;;;;;;;9.50;8.77;;;8.20;99.90;;;;;;6246170;23;20166;-77
2021/11/27 10:14:08;;;;;;;10.20;9.60;;;8.10;99.90;;;;;;6219075;23;20188;-77
2021/11/27 10:16:55;;;;;;;11.40;10.60;;;8.10;99.90;;;;;;6245884;23;20170;-77
2021/11/27 10:19:24;;;;;;;11.87;11.07;;;8.10;99.90;;;;;;6245745;23;20228;-77
2021/11/27 10:21:56;;;;;;;12.30;10.53;;;8.10;99.90;;;;;;6218910;22;20202;-77
2021/11/27 10:24:24;;;;;;;7.67;7.13;;;8.20;99.90;;;;;;6246000;23;20241;-78
2021/11/27 10:26:52;;;;;;;9.07;8.50;;;8.30;99.90;;;;;;6245580;23;20177;-77
2021/11/27 10:29:22;;;;;;;11.10;10.50;;;8.30;99.90;;;;;;6245629;23;20212;-79
2021/11/27 10:31:53;;;;;;;10.80;10.10;;;8.40;99.90;;;;;;6246017;22;20173;-76
2021/11/27 10:34:24;;;;;;;3.20;2.90;;;8.40;99.90;;;;;;6219223;23;20170;-77
2021/11/27 10:36:52;;;;;;;3.80;3.47;;;8.50;99.90;;;;;;6218508;23;20181;-77
2021/11/27 10:39:19;;;;;;;2.77;2.57;;;8.40;99.90;;;;;;6218850;23;20190;-77
2021/11/27 10:41:57;;;;;;;2.87;2.50;;;8.30;99.90;;;;;;6218922;22;20236;-77
2021/11/27 10:44:29;;;;;;;2.40;2.30;;;8.20;99.90;;;;;;6218650;23;20173;-77
2021/11/27 10:47:09;;;;;;;8.00;7.53;;;8.10;99.90;;;;;;6246182;23;20216;-77
2021/11/27 10:49:37;;;;;;;14.00;13.23;;;8.00;99.90;;;;;;6246121;23;20229;-77
2021/11/27 10:52:06;;;;;;;14.33;13.37;;;7.90;99.90;;;;;;6219592;23;20194;-77
2021/11/27 10:54:46;;;;;;;10.07;9.47;;;7.90;99.90;;;;;;6219339;23;20220;-78
2021/11/27 10:57:32;;;;;;;12.70;12.00;;;7.80;99.90;;;;;;6221690;23;20165;-77
2021/11/27 11:00:02;;;;;;;10.00;9.40;;;7.70;99.90;;;;;;6220196;23;20189;-77
2021/11/27 11:02:35;;;;;;;9.93;9.33;;;7.70;99.90;;;;;;6219410;23;20203;-77
2021/11/27 11:05:08;;;;;;;10.10;9.50;;;7.60;99.90;;;;;;6219145;23;20177;-78
2021/11/27 11:07:38;;;;;;;9.80;9.20;;;7.50;99.90;;;;;;6218556;23;20185;-77
2021/11/27 11:10:25;;;;;;;10.40;9.80;;;7.50;99.90;;;;;;6219807;23;20173;-77
2021/11/27 11:12:57;;;;;;;11.57;10.87;;;7.40;99.90;;;;;;6217045;23;20251;-77
2021/11/27 11:15:27;;;;;;;10.40;9.80;;;7.30;99.90;;;;;;6217816;23;20616;-77
2021/11/27 11:18:07;;;;;;;10.67;10.00;;;7.10;99.90;;;;;;6245999;23;20516;-78
2021/11/27 11:20:36;;;;;;;10.40;9.80;;;7.00;99.90;;;;;;6245452;23;20678;-77
2021/11/27 11:23:09;;;;;;;10.67;10.00;;;6.80;99.90;;;;;;6243759;22;20242;-78
2021/11/27 11:25:39;;;;;;;6.40;6.00;;;6.70;99.90;;;;;;6242678;23;20168;-77
2021/11/27 11:28:14;;;;;;;10.43;9.83;;;6.50;99.90;;;;;;6244454;23;20171;-76
2021/11/27 11:30:45;;;;;;;10.00;9.50;;;6.50;99.90;;;;;;6244738;23;20504;-77
2021/11/27 11:33:13;;;;;;;11.00;10.40;;;6.50;99.90;;;;;;6245288;22;20717;-77
2021/11/27 11:35:42;;;;;;;11.10;10.37;;;6.50;99.90;;;;;;6245648;23;20639;-76
2021/11/27 11:38:10;;;;;;;10.40;9.80;;;6.60;99.90;;;;;;6217901;23;20175;-76
2021/11/27 11:40:38;;;;;;;10.60;9.90;;;6.60;99.90;;;;;;6245236;23;20191;-77
2021/11/27 11:43:05;;;;;;;10.40;9.80;;;6.60;99.90;;;;;;6245201;22;20577;-77
2021/11/27 11:45:32;;;;;;;10.30;9.60;;;6.70;99.90;;;;;;6218458;23;20646;-77
2021/11/27 11:48:00;;;;;;;10.40;9.80;;;6.80;99.90;;;;;;6244943;23;20213;-76
2021/11/27 11:50:29;;;;;;;10.10;9.60;;;6.80;99.90;;;;;;6244782;23;20239;-76
2021/11/27 11:53:05;;;;;;;10.20;9.70;;;6.90;99.90;;;;;;6244380;22;20581;-76
2021/11/27 11:55:32;;;;;;;10.40;9.80;;;6.90;99.90;;;;;;6218256;23;20173;-76
2021/11/27 11:58:02;;;;;;;10.40;9.77;;;6.90;99.90;;;;;;6218050;23;20172;-76
2021/11/27 12:00:31;;;;;;;10.40;9.80;;;6.80;99.90;;;;;;6244920;23;20211;-77
2021/11/27 12:03:09;;;;;;;9.70;9.20;;;6.80;99.90;;;;;;6218100;23;20543;-76
2021/11/27 12:06:02;;;;;;;10.63;10.07;;;6.90;99.90;;;;;;6245073;23;20227;-76
2021/11/27 12:09:02;;;;;;;9.10;8.50;;;7.00;99.90;;;;;;6217687;23;20223;-76
2021/11/27 12:11:41;;;;;;;7.70;7.30;;;7.20;99.90;;;;;;6230412;23;20188;-80
2021/11/27 12:14:56;;;;;;;9.90;9.40;;;7.20;99.90;;;;;;6244550;23;20161;-76
2021/11/27 12:17:23;;;;;;;10.33;9.73;;;7.20;99.90;;;;;;6212073;23;20249;-77
2021/11/27 12:19:52;;;;;;;9.43;8.93;;;7.20;99.90;;;;;;6246650;23;20687;-79
2021/11/27 12:22:39;;;;;;;9.57;9.07;;;7.10;99.90;;;;;;6245740;22;20212;-79
2021/11/27 12:25:11;;;;;;;10.40;9.80;;;7.10;99.90;;;;;;6216324;23;20198;-77
2021/11/27 12:28:10;;;;;;;10.87;10.20;;;7.10;99.90;;;;;;6216560;23;20162;-77
2021/11/27 12:30:56;;;;;;;10.47;9.87;;;7.10;99.90;;;;;;6225708;23;20172;-77
2021/11/27 12:33:45;;;;;;;10.47;9.87;;;7.10;99.90;;;;;;6215189;23;20194;-77
2021/11/27 12:36:47;;;;;;;10.67;10.00;;;7.20;99.90;;;;;;6233173;23;20183;-77
2021/11/27 12:39:30;;;;;;;10.60;9.90;;;7.40;99.90;;;;;;6243133;23;20166;-76
2021/11/27 12:42:22;;;;;;;10.20;9.60;;;7.50;99.90;;;;;;6241804;22;20232;-77
2021/11/27 12:44:51;;;;;;;10.73;10.07;;;7.60;99.90;;;;;;6242479;22;20158;-76
2021/11/27 12:47:40;;;;;;;10.23;9.63;;;7.70;99.90;;;;;;6243806;23;20173;-78
2021/11/27 12:50:23;;;;;;;10.40;9.60;;;7.60;99.90;;;;;;6245413;22;20181;-76
2021/11/27 12:52:51;;;;;;;10.23;9.33;;;7.40;99.90;;;;;;6245899;22;20207;-77
2021/11/27 12:55:38;;;;;;;9.73;9.13;;;7.20;99.90;;;;;;6242874;23;20188;-77